sensor_id;sensor_type;location;lat;lon;timestamp;P1;durP1;ratioP1;P2;durP2;ratioP2
50161;SDS011;36061;48.116;11.612;2022-11-30T00:00:18;26.00;;;11.53;;
50161;SDS011;36061;48.116;11.612;2022-11-30T00:02:45;22.73;;;11.33;;
50161;SDS011;36061;48.116;11.612;2022-11-30T00:05:13;22.27;;;11.50;;
50161;SDS011;36061;48.116;11.612;2022-11-30T00:07:39;21.73;;;10.93;;
50161;SDS011;36061;48.116;11.612;2022-11-30T00:10:05;16.87;;;9.50;;
50161;SDS011;36061;48.116;11.612;2022-11-30T00:12:32;20.70;;;11.53;;
50161;SDS011;36061;48.116;11.612;2022-11-30T00:14:58;23.20;;;11.40;;
50161;SDS011;36061;48.116;11.612;2022-11-30T00:17:24;20.80;;;10.50;;
50161;SDS011;36061;48.116;11.612;2022-11-30T00:19:49;20.47;;;11.63;;
50161;SDS011;36061;48.116;11.612;2022-11-30T00:22:15;25.57;;;12.03;;
50161;SDS011;36061;48.116;11.612;2022-11-30T00:24:41;23.47;;;11.17;;
50161;SDS011;36061;48.116;11.612;2022-11-30T00:27:07;22.73;;;12.37;;
50161;SDS011;36061;48.116;11.612;2022-11-30T00:29:32;18.07;;;10.93;;
50161;SDS011;36061;48.116;11.612;2022-11-30T00:31:58;22.50;;;11.97;;
50161;SDS011;36061;48.116;11.612;2022-11-30T00:34:24;20.83;;;11.40;;
50161;SDS011;36061;48.116;11.612;2022-11-30T00:36:49;23.67;;;11.90;;
50161;SDS011;36061;48.116;11.612;2022-11-30T00:39:15;20.67;;;11.33;;
50161;SDS011;36061;48.116;11.612;2022-11-30T00:41:41;27.17;;;12.37;;
50161;SDS011;36061;48.116;11.612;2022-11-30T00:44:07;19.53;;;11.87;;
50161;SDS011;36061;48.116;11.612;2022-11-30T00:46:32;26.20;;;12.23;;
50161;SDS011;36061;48.116;11.612;2022-11-30T00:48:58;22.57;;;11.47;;
50161;SDS011;36061;48.116;11.612;2022-11-30T00:51:24;26.57;;;12.67;;
50161;SDS011;36061;48.116;11.612;2022-11-30T00:53:49;23.27;;;12.50;;
50161;SDS011;36061;48.116;11.612;2022-11-30T00:56:15;20.30;;;11.13;;
50161;SDS011;36061;48.116;11.612;2022-11-30T00:58:41;27.77;;;13.67;;
50161;SDS011;36061;48.116;11.612;2022-11-30T01:01:07;27.20;;;13.53;;
50161;SDS011;36061;48.116;11.612;2022-11-30T01:03:33;28.90;;;13.50;;
50161;SDS011;36061;48.116;11.612;2022-11-30T01:06:04;28.97;;;14.30;;
50161;SDS011;36061;48.116;11.612;2022-11-30T01:08:31;26.77;;;13.13;;
50161;SDS011;36061;48.116;11.612;2022-11-30T01:11:03;26.07;;;12.33;;
50161;SDS011;36061;48.116;11.612;2022-11-30T01:13:30;25.50;;;11.57;;
50161;SDS011;36061;48.116;11.612;2022-11-30T01:15:56;21.57;;;12.40;;
50161;SDS011;36061;48.116;11.612;2022-11-30T01:18:22;21.77;;;11.57;;
50161;SDS011;36061;48.116;11.612;2022-11-30T01:20:48;20.00;;;10.77;;
50161;SDS011;36061;48.116;11.612;2022-11-30T01:23:13;20.93;;;11.23;;
50161;SDS011;36061;48.116;11.612;2022-11-30T01:25:39;24.90;;;13.17;;
50161;SDS011;36061;48.116;11.612;2022-11-30T01:28:05;25.77;;;12.27;;
50161;SDS011;36061;48.116;11.612;2022-11-30T01:30:33;20.57;;;11.63;;
50161;SDS011;36061;48.116;11.612;2022-11-30T01:33:02;23.77;;;11.70;;
50161;SDS011;36061;48.116;11.612;2022-11-30T01:35:29;25.47;;;12.57;;
50161;SDS011;36061;48.116;11.612;2022-11-30T01:37:55;26.13;;;13.10;;
50161;SDS011;36061;48.116;11.612;2022-11-30T01:40:20;23.70;;;12.03;;
50161;SDS011;36061;48.116;11.612;2022-11-30T01:42:46;26.70;;;13.47;;
50161;SDS011;36061;48.116;11.612;2022-11-30T01:45:12;24.00;;;12.40;;
50161;SDS011;36061;48.116;11.612;2022-11-30T01:47:56;24.10;;;12.90;;
50161;SDS011;36061;48.116;11.612;2022-11-30T01:50:27;27.97;;;12.97;;
50161;SDS011;36061;48.116;11.612;2022-11-30T01:52:56;26.70;;;12.60;;
50161;SDS011;36061;48.116;11.612;2022-11-30T01:57:58;27.87;;;14.67;;
50161;SDS011;36061;48.116;11.612;2022-11-30T02:00:29;24.33;;;13.10;;
50161;SDS011;36061;48.116;11.612;2022-11-30T02:03:02;26.93;;;13.10;;
50161;SDS011;36061;48.116;11.612;2022-11-30T02:05:37;29.53;;;14.03;;
50161;SDS011;36061;48.116;11.612;2022-11-30T02:08:05;27.73;;;13.17;;
50161;SDS011;36061;48.116;11.612;2022-11-30T02:10:33;30.23;;;13.07;;
50161;SDS011;36061;48.116;11.612;2022-11-30T02:18:31;29.27;;;13.87;;
50161;SDS011;36061;48.116;11.612;2022-11-30T02:26:47;27.27;;;13.20;;
50161;SDS011;36061;48.116;11.612;2022-11-30T02:29:29;27.93;;;13.97;;
50161;SDS011;36061;48.116;11.612;2022-11-30T02:34:51;31.17;;;14.13;;
50161;SDS011;36061;48.116;11.612;2022-11-30T02:37:19;30.13;;;14.77;;
50161;SDS011;36061;48.116;11.612;2022-11-30T02:39:46;24.43;;;13.10;;
50161;SDS011;36061;48.116;11.612;2022-11-30T02:42:12;24.17;;;12.83;;
50161;SDS011;36061;48.116;11.612;2022-11-30T02:44:42;24.40;;;12.27;;
50161;SDS011;36061;48.116;11.612;2022-11-30T02:49:55;24.23;;;11.70;;
50161;SDS011;36061;48.116;11.612;2022-11-30T02:52:23;23.20;;;12.07;;
50161;SDS011;36061;48.116;11.612;2022-11-30T02:54:51;20.83;;;10.57;;
50161;SDS011;36061;48.116;11.612;2022-11-30T02:57:22;21.87;;;11.70;;
50161;SDS011;36061;48.116;11.612;2022-11-30T02:59:48;25.27;;;11.70;;
50161;SDS011;36061;48.116;11.612;2022-11-30T03:02:14;23.70;;;12.40;;
50161;SDS011;36061;48.116;11.612;2022-11-30T03:04:40;21.87;;;10.67;;
50161;SDS011;36061;48.116;11.612;2022-11-30T03:07:06;20.73;;;10.53;;
50161;SDS011;36061;48.116;11.612;2022-11-30T03:09:31;19.03;;;9.80;;
50161;SDS011;36061;48.116;11.612;2022-11-30T03:11:57;19.67;;;10.33;;
50161;SDS011;36061;48.116;11.612;2022-11-30T03:14:23;24.17;;;10.27;;
50161;SDS011;36061;48.116;11.612;2022-11-30T03:16:49;16.90;;;9.77;;
50161;SDS011;36061;48.116;11.612;2022-11-30T03:19:14;20.17;;;10.33;;
50161;SDS011;36061;48.116;11.612;2022-11-30T03:21:40;21.97;;;11.03;;
50161;SDS011;36061;48.116;11.612;2022-11-30T03:24:06;23.60;;;10.87;;
50161;SDS011;36061;48.116;11.612;2022-11-30T03:26:32;27.97;;;12.03;;
50161;SDS011;36061;48.116;11.612;2022-11-30T03:28:58;20.43;;;10.90;;
50161;SDS011;36061;48.116;11.612;2022-11-30T03:31:23;24.70;;;11.87;;
50161;SDS011;36061;48.116;11.612;2022-11-30T03:33:49;22.27;;;10.97;;
50161;SDS011;36061;48.116;11.612;2022-11-30T03:36:15;25.53;;;11.60;;
50161;SDS011;36061;48.116;11.612;2022-11-30T03:38:41;25.23;;;11.00;;
50161;SDS011;36061;48.116;11.612;2022-11-30T03:41:12;23.30;;;10.73;;
50161;SDS011;36061;48.116;11.612;2022-11-30T03:43:41;25.70;;;11.23;;
50161;SDS011;36061;48.116;11.612;2022-11-30T03:46:07;18.73;;;10.13;;
50161;SDS011;36061;48.116;11.612;2022-11-30T03:48:33;24.10;;;11.00;;
50161;SDS011;36061;48.116;11.612;2022-11-30T03:51:00;20.40;;;11.07;;
50161;SDS011;36061;48.116;11.612;2022-11-30T03:53:26;27.07;;;12.70;;
50161;SDS011;36061;48.116;11.612;2022-11-30T03:55:56;23.07;;;11.43;;
50161;SDS011;36061;48.116;11.612;2022-11-30T03:58:23;22.83;;;12.00;;
50161;SDS011;36061;48.116;11.612;2022-11-30T04:00:56;22.67;;;12.20;;
50161;SDS011;36061;48.116;11.612;2022-11-30T04:03:27;23.70;;;12.03;;
50161;SDS011;36061;48.116;11.612;2022-11-30T04:05:53;25.60;;;11.77;;
50161;SDS011;36061;48.116;11.612;2022-11-30T04:08:19;27.67;;;12.60;;
50161;SDS011;36061;48.116;11.612;2022-11-30T04:10:46;27.33;;;12.57;;
50161;SDS011;36061;48.116;11.612;2022-11-30T04:13:12;24.37;;;12.40;;
50161;SDS011;36061;48.116;11.612;2022-11-30T04:15:38;23.97;;;12.07;;
50161;SDS011;36061;48.116;11.612;2022-11-30T04:18:04;23.27;;;11.20;;
50161;SDS011;36061;48.116;11.612;2022-11-30T04:20:29;27.37;;;12.17;;
50161;SDS011;36061;48.116;11.612;2022-11-30T04:22:56;27.23;;;12.73;;
50161;SDS011;36061;48.116;11.612;2022-11-30T04:25:22;26.40;;;12.23;;
50161;SDS011;36061;48.116;11.612;2022-11-30T04:27:48;24.97;;;12.40;;
50161;SDS011;36061;48.116;11.612;2022-11-30T04:30:14;24.23;;;12.57;;
50161;SDS011;36061;48.116;11.612;2022-11-30T04:32:41;26.33;;;13.17;;
50161;SDS011;36061;48.116;11.612;2022-11-30T04:35:07;26.00;;;12.17;;
50161;SDS011;36061;48.116;11.612;2022-11-30T04:37:34;23.23;;;10.80;;
50161;SDS011;36061;48.116;11.612;2022-11-30T04:39:59;26.77;;;12.10;;
50161;SDS011;36061;48.116;11.612;2022-11-30T04:42:25;24.20;;;12.40;;
50161;SDS011;36061;48.116;11.612;2022-11-30T04:44:51;23.80;;;11.83;;
50161;SDS011;36061;48.116;11.612;2022-11-30T04:47:16;25.67;;;11.27;;
50161;SDS011;36061;48.116;11.612;2022-11-30T04:49:42;26.47;;;12.80;;
50161;SDS011;36061;48.116;11.612;2022-11-30T04:52:08;27.33;;;12.20;;
50161;SDS011;36061;48.116;11.612;2022-11-30T04:54:34;25.87;;;12.70;;
50161;SDS011;36061;48.116;11.612;2022-11-30T04:56:59;30.13;;;12.23;;
50161;SDS011;36061;48.116;11.612;2022-11-30T04:59:25;25.27;;;11.97;;
50161;SDS011;36061;48.116;11.612;2022-11-30T05:01:51;27.83;;;13.23;;
50161;SDS011;36061;48.116;11.612;2022-11-30T05:04:17;32.60;;;13.10;;
50161;SDS011;36061;48.116;11.612;2022-11-30T05:06:42;26.70;;;12.47;;
50161;SDS011;36061;48.116;11.612;2022-11-30T05:09:08;25.03;;;12.27;;
50161;SDS011;36061;48.116;11.612;2022-11-30T05:11:34;26.53;;;12.57;;
50161;SDS011;36061;48.116;11.612;2022-11-30T05:13:59;27.17;;;11.93;;
50161;SDS011;36061;48.116;11.612;2022-11-30T05:16:25;25.87;;;12.60;;
50161;SDS011;36061;48.116;11.612;2022-11-30T05:18:51;25.53;;;12.43;;
50161;SDS011;36061;48.116;11.612;2022-11-30T05:21:17;22.90;;;12.40;;
50161;SDS011;36061;48.116;11.612;2022-11-30T05:23:42;23.77;;;12.33;;
50161;SDS011;36061;48.116;11.612;2022-11-30T05:26:08;23.53;;;12.37;;
50161;SDS011;36061;48.116;11.612;2022-11-30T05:28:35;23.23;;;11.90;;
50161;SDS011;36061;48.116;11.612;2022-11-30T05:31:02;26.63;;;11.73;;
50161;SDS011;36061;48.116;11.612;2022-11-30T05:33:28;23.60;;;11.83;;
50161;SDS011;36061;48.116;11.612;2022-11-30T05:35:54;22.63;;;11.57;;
50161;SDS011;36061;48.116;11.612;2022-11-30T05:38:20;21.73;;;11.93;;
50161;SDS011;36061;48.116;11.612;2022-11-30T05:40:45;23.63;;;12.53;;
50161;SDS011;36061;48.116;11.612;2022-11-30T05:43:11;21.70;;;10.83;;
50161;SDS011;36061;48.116;11.612;2022-11-30T05:45:37;22.43;;;12.20;;
50161;SDS011;36061;48.116;11.612;2022-11-30T05:48:03;20.40;;;10.40;;
50161;SDS011;36061;48.116;11.612;2022-11-30T05:50:29;22.53;;;10.63;;
50161;SDS011;36061;48.116;11.612;2022-11-30T05:52:55;23.37;;;10.53;;
50161;SDS011;36061;48.116;11.612;2022-11-30T05:55:22;21.90;;;10.40;;
50161;SDS011;36061;48.116;11.612;2022-11-30T05:57:48;20.87;;;10.10;;
50161;SDS011;36061;48.116;11.612;2022-11-30T06:00:14;21.17;;;10.30;;
50161;SDS011;36061;48.116;11.612;2022-11-30T06:02:40;24.33;;;10.63;;
50161;SDS011;36061;48.116;11.612;2022-11-30T06:05:06;21.87;;;11.53;;
50161;SDS011;36061;48.116;11.612;2022-11-30T06:07:32;22.47;;;11.43;;
50161;SDS011;36061;48.116;11.612;2022-11-30T06:09:58;18.63;;;10.77;;
50161;SDS011;36061;48.116;11.612;2022-11-30T06:12:23;19.73;;;10.53;;
50161;SDS011;36061;48.116;11.612;2022-11-30T06:14:49;19.70;;;10.63;;
50161;SDS011;36061;48.116;11.612;2022-11-30T06:17:15;24.37;;;11.60;;
50161;SDS011;36061;48.116;11.612;2022-11-30T06:19:41;19.63;;;10.17;;
50161;SDS011;36061;48.116;11.612;2022-11-30T06:22:07;20.97;;;10.10;;
50161;SDS011;36061;48.116;11.612;2022-11-30T06:24:33;23.83;;;10.17;;
50161;SDS011;36061;48.116;11.612;2022-11-30T06:26:58;21.03;;;10.63;;
50161;SDS011;36061;48.116;11.612;2022-11-30T06:29:24;23.13;;;11.07;;
50161;SDS011;36061;48.116;11.612;2022-11-30T06:31:50;17.77;;;9.77;;
50161;SDS011;36061;48.116;11.612;2022-11-30T06:34:16;18.17;;;9.97;;
50161;SDS011;36061;48.116;11.612;2022-11-30T06:36:41;20.30;;;10.87;;
50161;SDS011;36061;48.116;11.612;2022-11-30T06:39:08;18.67;;;10.13;;
50161;SDS011;36061;48.116;11.612;2022-11-30T06:41:35;26.63;;;11.27;;
50161;SDS011;36061;48.116;11.612;2022-11-30T06:44:01;24.63;;;10.23;;
50161;SDS011;36061;48.116;11.612;2022-11-30T06:46:27;17.07;;;9.67;;
50161;SDS011;36061;48.116;11.612;2022-11-30T06:48:52;18.37;;;11.13;;
50161;SDS011;36061;48.116;11.612;2022-11-30T06:51:18;11.00;;;6.63;;
50161;SDS011;36061;48.116;11.612;2022-11-30T06:53:44;15.77;;;8.57;;
50161;SDS011;36061;48.116;11.612;2022-11-30T06:56:10;23.77;;;10.87;;
50161;SDS011;36061;48.116;11.612;2022-11-30T06:58:37;19.27;;;9.83;;
50161;SDS011;36061;48.116;11.612;2022-11-30T07:01:04;18.37;;;9.50;;
50161;SDS011;36061;48.116;11.612;2022-11-30T07:03:31;16.30;;;9.33;;
50161;SDS011;36061;48.116;11.612;2022-11-30T07:05:57;20.47;;;10.73;;
50161;SDS011;36061;48.116;11.612;2022-11-30T07:08:23;17.67;;;9.77;;
50161;SDS011;36061;48.116;11.612;2022-11-30T07:10:49;18.20;;;11.13;;
50161;SDS011;36061;48.116;11.612;2022-11-30T07:13:16;16.57;;;9.80;;
50161;SDS011;36061;48.116;11.612;2022-11-30T07:15:43;21.43;;;10.50;;
50161;SDS011;36061;48.116;11.612;2022-11-30T07:18:10;19.07;;;9.53;;
50161;SDS011;36061;48.116;11.612;2022-11-30T07:20:36;17.80;;;10.70;;
50161;SDS011;36061;48.116;11.612;2022-11-30T07:23:02;22.50;;;11.33;;
50161;SDS011;36061;48.116;11.612;2022-11-30T07:25:50;17.37;;;9.93;;
50161;SDS011;36061;48.116;11.612;2022-11-30T07:28:34;18.53;;;9.53;;
50161;SDS011;36061;48.116;11.612;2022-11-30T07:31:20;19.40;;;10.23;;
50161;SDS011;36061;48.116;11.612;2022-11-30T07:33:48;21.30;;;10.70;;
50161;SDS011;36061;48.116;11.612;2022-11-30T07:36:15;17.33;;;9.33;;
50161;SDS011;36061;48.116;11.612;2022-11-30T07:38:42;20.87;;;10.90;;
50161;SDS011;36061;48.116;11.612;2022-11-30T07:41:08;20.23;;;10.17;;
50161;SDS011;36061;48.116;11.612;2022-11-30T07:43:34;19.67;;;10.30;;
50161;SDS011;36061;48.116;11.612;2022-11-30T07:46:00;20.33;;;10.63;;
50161;SDS011;36061;48.116;11.612;2022-11-30T07:48:26;18.53;;;10.77;;
50161;SDS011;36061;48.116;11.612;2022-11-30T07:50:52;20.27;;;9.73;;
50161;SDS011;36061;48.116;11.612;2022-11-30T07:53:19;23.00;;;11.67;;
50161;SDS011;36061;48.116;11.612;2022-11-30T07:55:44;18.60;;;10.17;;
50161;SDS011;36061;48.116;11.612;2022-11-30T07:58:10;20.87;;;10.20;;
50161;SDS011;36061;48.116;11.612;2022-11-30T08:00:37;18.50;;;9.97;;
50161;SDS011;36061;48.116;11.612;2022-11-30T08:03:03;26.47;;;10.87;;
50161;SDS011;36061;48.116;11.612;2022-11-30T08:05:30;21.10;;;11.30;;
50161;SDS011;36061;48.116;11.612;2022-11-30T08:07:55;23.20;;;10.57;;
50161;SDS011;36061;48.116;11.612;2022-11-30T08:10:22;21.57;;;11.37;;
50161;SDS011;36061;48.116;11.612;2022-11-30T08:12:48;20.50;;;10.43;;
50161;SDS011;36061;48.116;11.612;2022-11-30T08:15:14;23.17;;;10.07;;
50161;SDS011;36061;48.116;11.612;2022-11-30T08:17:41;21.57;;;10.57;;
50161;SDS011;36061;48.116;11.612;2022-11-30T08:20:07;21.03;;;10.47;;
50161;SDS011;36061;48.116;11.612;2022-11-30T08:22:34;24.10;;;10.33;;
50161;SDS011;36061;48.116;11.612;2022-11-30T08:25:00;18.60;;;10.17;;
50161;SDS011;36061;48.116;11.612;2022-11-30T08:27:26;21.03;;;11.67;;
50161;SDS011;36061;48.116;11.612;2022-11-30T08:29:52;22.67;;;10.13;;
50161;SDS011;36061;48.116;11.612;2022-11-30T08:32:20;24.70;;;11.20;;
50161;SDS011;36061;48.116;11.612;2022-11-30T08:34:46;22.50;;;11.20;;
50161;SDS011;36061;48.116;11.612;2022-11-30T08:37:12;20.90;;;10.80;;
50161;SDS011;36061;48.116;11.612;2022-11-30T08:39:38;20.67;;;10.20;;
50161;SDS011;36061;48.116;11.612;2022-11-30T08:42:04;19.00;;;10.47;;
50161;SDS011;36061;48.116;11.612;2022-11-30T08:44:29;18.90;;;10.43;;
50161;SDS011;36061;48.116;11.612;2022-11-30T08:46:55;18.27;;;9.93;;
50161;SDS011;36061;48.116;11.612;2022-11-30T08:49:21;19.80;;;10.13;;
50161;SDS011;36061;48.116;11.612;2022-11-30T08:51:51;23.60;;;11.60;;
50161;SDS011;36061;48.116;11.612;2022-11-30T08:54:18;17.97;;;8.87;;
50161;SDS011;36061;48.116;11.612;2022-11-30T08:56:44;16.90;;;8.73;;
50161;SDS011;36061;48.116;11.612;2022-11-30T08:59:10;17.93;;;9.33;;
50161;SDS011;36061;48.116;11.612;2022-11-30T09:01:35;21.23;;;9.37;;
50161;SDS011;36061;48.116;11.612;2022-11-30T09:04:01;18.60;;;9.40;;
50161;SDS011;36061;48.116;11.612;2022-11-30T09:06:28;14.90;;;8.80;;
50161;SDS011;36061;48.116;11.612;2022-11-30T09:08:55;22.50;;;9.00;;
50161;SDS011;36061;48.116;11.612;2022-11-30T09:13:51;16.80;;;8.60;;
50161;SDS011;36061;48.116;11.612;2022-11-30T09:16:18;22.10;;;10.30;;
50161;SDS011;36061;48.116;11.612;2022-11-30T09:18:45;18.07;;;8.43;;
50161;SDS011;36061;48.116;11.612;2022-11-30T09:21:14;17.70;;;8.50;;
50161;SDS011;36061;48.116;11.612;2022-11-30T09:23:41;17.07;;;9.10;;
50161;SDS011;36061;48.116;11.612;2022-11-30T09:26:09;16.77;;;8.73;;
50161;SDS011;36061;48.116;11.612;2022-11-30T09:28:36;19.10;;;9.00;;
50161;SDS011;36061;48.116;11.612;2022-11-30T09:31:03;24.87;;;10.30;;
50161;SDS011;36061;48.116;11.612;2022-11-30T09:33:30;18.60;;;9.77;;
50161;SDS011;36061;48.116;11.612;2022-11-30T09:35:56;24.63;;;10.17;;
50161;SDS011;36061;48.116;11.612;2022-11-30T09:38:24;19.70;;;9.53;;
50161;SDS011;36061;48.116;11.612;2022-11-30T09:40:54;20.00;;;9.53;;
50161;SDS011;36061;48.116;11.612;2022-11-30T09:46:05;19.70;;;9.53;;
50161;SDS011;36061;48.116;11.612;2022-11-30T09:51:50;17.37;;;9.37;;
50161;SDS011;36061;48.116;11.612;2022-11-30T09:54:41;19.27;;;9.37;;
50161;SDS011;36061;48.116;11.612;2022-11-30T09:57:25;21.40;;;10.10;;
50161;SDS011;36061;48.116;11.612;2022-11-30T09:59:55;15.90;;;9.00;;
50161;SDS011;36061;48.116;11.612;2022-11-30T10:02:28;21.10;;;9.17;;
50161;SDS011;36061;48.116;11.612;2022-11-30T10:04:56;20.33;;;10.00;;
50161;SDS011;36061;48.116;11.612;2022-11-30T10:10:26;18.13;;;9.60;;
50161;SDS011;36061;48.116;11.612;2022-11-30T10:18:39;18.13;;;9.37;;
50161;SDS011;36061;48.116;11.612;2022-11-30T10:27:58;15.07;;;8.37;;
50161;SDS011;36061;48.116;11.612;2022-11-30T10:30:07;16.50;;;7.87;;
50161;SDS011;36061;48.116;11.612;2022-11-30T10:32:41;16.23;;;8.50;;
50161;SDS011;36061;48.116;11.612;2022-11-30T10:41:00;16.10;;;8.10;;
50161;SDS011;36061;48.116;11.612;2022-11-30T10:43:34;18.37;;;8.17;;
50161;SDS011;36061;48.116;11.612;2022-11-30T10:46:27;19.10;;;8.83;;
50161;SDS011;36061;48.116;11.612;2022-11-30T10:49:01;15.43;;;8.57;;
50161;SDS011;36061;48.116;11.612;2022-11-30T10:51:36;15.90;;;8.47;;
50161;SDS011;36061;48.116;11.612;2022-11-30T10:54:14;17.60;;;8.93;;
50161;SDS011;36061;48.116;11.612;2022-11-30T10:56:42;18.37;;;8.73;;
50161;SDS011;36061;48.116;11.612;2022-11-30T10:59:14;15.87;;;9.07;;
50161;SDS011;36061;48.116;11.612;2022-11-30T11:01:55;18.80;;;9.07;;
50161;SDS011;36061;48.116;11.612;2022-11-30T11:04:21;19.80;;;9.20;;
50161;SDS011;36061;48.116;11.612;2022-11-30T11:06:50;15.67;;;8.00;;
50161;SDS011;36061;48.116;11.612;2022-11-30T11:12:00;18.83;;;8.87;;
50161;SDS011;36061;48.116;11.612;2022-11-30T11:14:27;14.53;;;7.73;;
50161;SDS011;36061;48.116;11.612;2022-11-30T11:16:55;15.10;;;8.50;;
50161;SDS011;36061;48.116;11.612;2022-11-30T11:19:38;13.30;;;6.93;;
50161;SDS011;36061;48.116;11.612;2022-11-30T11:24:42;14.37;;;6.87;;
50161;SDS011;36061;48.116;11.612;2022-11-30T11:27:18;16.30;;;7.50;;
50161;SDS011;36061;48.116;11.612;2022-11-30T11:30:00;12.93;;;7.30;;
50161;SDS011;36061;48.116;11.612;2022-11-30T11:32:27;14.67;;;7.67;;
50161;SDS011;36061;48.116;11.612;2022-11-30T11:34:54;16.10;;;7.93;;
50161;SDS011;36061;48.116;11.612;2022-11-30T11:37:28;19.97;;;9.37;;
50161;SDS011;36061;48.116;11.612;2022-11-30T11:42:30;17.87;;;8.97;;
50161;SDS011;36061;48.116;11.612;2022-11-30T11:45:05;17.03;;;8.53;;
50161;SDS011;36061;48.116;11.612;2022-11-30T11:47:42;16.57;;;8.67;;
50161;SDS011;36061;48.116;11.612;2022-11-30T11:50:19;16.60;;;8.20;;
50161;SDS011;36061;48.116;11.612;2022-11-30T11:52:48;16.67;;;8.97;;
50161;SDS011;36061;48.116;11.612;2022-11-30T11:55:16;16.83;;;9.03;;
50161;SDS011;36061;48.116;11.612;2022-11-30T11:57:53;19.93;;;10.43;;
50161;SDS011;36061;48.116;11.612;2022-11-30T12:00:22;19.67;;;10.27;;
50161;SDS011;36061;48.116;11.612;2022-11-30T12:06:09;18.50;;;9.90;;
50161;SDS011;36061;48.116;11.612;2022-11-30T12:13:58;19.07;;;9.63;;
50161;SDS011;36061;48.116;11.612;2022-11-30T12:19:25;15.63;;;8.90;;
50161;SDS011;36061;48.116;11.612;2022-11-30T12:22:02;17.20;;;10.23;;
50161;SDS011;36061;48.116;11.612;2022-11-30T12:38:46;16.43;;;7.87;;
50161;SDS011;36061;48.116;11.612;2022-11-30T12:57:24;14.47;;;7.43;;
50161;SDS011;36061;48.116;11.612;2022-11-30T13:00:01;15.73;;;7.77;;
50161;SDS011;36061;48.116;11.612;2022-11-30T13:05:53;16.00;;;7.40;;
50161;SDS011;36061;48.116;11.612;2022-11-30T13:08:35;16.70;;;8.47;;
50161;SDS011;36061;48.116;11.612;2022-11-30T13:11:15;14.87;;;7.90;;
50161;SDS011;36061;48.116;11.612;2022-11-30T13:14:08;15.23;;;8.47;;
50161;SDS011;36061;48.116;11.612;2022-11-30T13:16:42;15.00;;;7.33;;
50161;SDS011;36061;48.116;11.612;2022-11-30T13:19:35;16.60;;;7.40;;
50161;SDS011;36061;48.116;11.612;2022-11-30T13:22:23;14.33;;;7.13;;
50161;SDS011;36061;48.116;11.612;2022-11-30T13:25:25;12.47;;;7.43;;
50161;SDS011;36061;48.116;11.612;2022-11-30T13:41:42;15.70;;;7.37;;
50161;SDS011;36061;48.116;11.612;2022-11-30T13:44:20;14.73;;;7.53;;
50161;SDS011;36061;48.116;11.612;2022-11-30T13:46:49;16.37;;;8.43;;
50161;SDS011;36061;48.116;11.612;2022-11-30T13:49:21;12.57;;;7.73;;
50161;SDS011;36061;48.116;11.612;2022-11-30T13:51:47;13.07;;;7.20;;
50161;SDS011;36061;48.116;11.612;2022-11-30T13:56:58;17.37;;;7.70;;
50161;SDS011;36061;48.116;11.612;2022-11-30T14:01:50;15.57;;;8.47;;
50161;SDS011;36061;48.116;11.612;2022-11-30T14:06:47;16.70;;;8.17;;
50161;SDS011;36061;48.116;11.612;2022-11-30T14:09:53;13.17;;;8.13;;
50161;SDS011;36061;48.116;11.612;2022-11-30T14:14:56;14.30;;;7.93;;
50161;SDS011;36061;48.116;11.612;2022-11-30T14:17:26;12.97;;;7.27;;
50161;SDS011;36061;48.116;11.612;2022-11-30T14:19:59;18.37;;;9.00;;
50161;SDS011;36061;48.116;11.612;2022-11-30T14:22:40;14.47;;;8.67;;
50161;SDS011;36061;48.116;11.612;2022-11-30T14:25:14;18.00;;;9.20;;
50161;SDS011;36061;48.116;11.612;2022-11-30T14:27:42;19.50;;;8.93;;
50161;SDS011;36061;48.116;11.612;2022-11-30T14:30:14;17.63;;;9.03;;
50161;SDS011;36061;48.116;11.612;2022-11-30T14:32:45;16.13;;;8.23;;
50161;SDS011;36061;48.116;11.612;2022-11-30T14:35:18;16.83;;;8.93;;
50161;SDS011;36061;48.116;11.612;2022-11-30T14:37:45;18.70;;;9.20;;
50161;SDS011;36061;48.116;11.612;2022-11-30T14:40:23;17.77;;;9.13;;
50161;SDS011;36061;48.116;11.612;2022-11-30T14:42:55;22.17;;;11.80;;
50161;SDS011;36061;48.116;11.612;2022-11-30T14:45:26;17.67;;;8.77;;
50161;SDS011;36061;48.116;11.612;2022-11-30T14:48:15;18.80;;;9.67;;
50161;SDS011;36061;48.116;11.612;2022-11-30T14:50:51;18.50;;;9.80;;
50161;SDS011;36061;48.116;11.612;2022-11-30T15:01:55;22.23;;;10.30;;
50161;SDS011;36061;48.116;11.612;2022-11-30T15:04:24;18.90;;;9.97;;
50161;SDS011;36061;48.116;11.612;2022-11-30T15:06:52;19.60;;;10.53;;
50161;SDS011;36061;48.116;11.612;2022-11-30T15:09:20;21.13;;;10.83;;
50161;SDS011;36061;48.116;11.612;2022-11-30T15:11:49;18.43;;;10.00;;
50161;SDS011;36061;48.116;11.612;2022-11-30T15:14:16;18.70;;;9.97;;
50161;SDS011;36061;48.116;11.612;2022-11-30T15:16:52;19.17;;;10.33;;
50161;SDS011;36061;48.116;11.612;2022-11-30T15:19:27;20.17;;;10.47;;
50161;SDS011;36061;48.116;11.612;2022-11-30T15:21:56;19.60;;;11.17;;
50161;SDS011;36061;48.116;11.612;2022-11-30T15:24:23;18.37;;;11.03;;
50161;SDS011;36061;48.116;11.612;2022-11-30T15:29:35;15.77;;;9.37;;
50161;SDS011;36061;48.116;11.612;2022-11-30T15:32:06;20.33;;;10.43;;
50161;SDS011;36061;48.116;11.612;2022-11-30T15:34:57;19.67;;;10.80;;
50161;SDS011;36061;48.116;11.612;2022-11-30T15:37:31;19.17;;;9.30;;
50161;SDS011;36061;48.116;11.612;2022-11-30T15:40:00;18.27;;;9.43;;
50161;SDS011;36061;48.116;11.612;2022-11-30T15:42:31;14.73;;;9.53;;
50161;SDS011;36061;48.116;11.612;2022-11-30T15:47:57;18.40;;;10.40;;
50161;SDS011;36061;48.116;11.612;2022-11-30T15:52:57;19.57;;;9.83;;
50161;SDS011;36061;48.116;11.612;2022-11-30T15:55:50;17.73;;;9.03;;
50161;SDS011;36061;48.116;11.612;2022-11-30T16:03:31;20.17;;;10.43;;
50161;SDS011;36061;48.116;11.612;2022-11-30T16:05:58;20.97;;;9.80;;
50161;SDS011;36061;48.116;11.612;2022-11-30T16:08:26;19.30;;;9.77;;
50161;SDS011;36061;48.116;11.612;2022-11-30T16:10:52;18.53;;;11.10;;
50161;SDS011;36061;48.116;11.612;2022-11-30T16:13:19;16.07;;;9.50;;
50161;SDS011;36061;48.116;11.612;2022-11-30T16:15:47;18.43;;;10.67;;
50161;SDS011;36061;48.116;11.612;2022-11-30T16:18:18;16.47;;;9.83;;
50161;SDS011;36061;48.116;11.612;2022-11-30T16:20:49;20.93;;;9.37;;
50161;SDS011;36061;48.116;11.612;2022-11-30T16:23:17;19.77;;;9.23;;
50161;SDS011;36061;48.116;11.612;2022-11-30T16:25:44;18.00;;;9.90;;
50161;SDS011;36061;48.116;11.612;2022-11-30T16:28:12;20.53;;;10.03;;
50161;SDS011;36061;48.116;11.612;2022-11-30T16:30:39;19.97;;;9.87;;
50161;SDS011;36061;48.116;11.612;2022-11-30T16:33:15;19.90;;;10.47;;
50161;SDS011;36061;48.116;11.612;2022-11-30T16:35:50;17.57;;;8.93;;
50161;SDS011;36061;48.116;11.612;2022-11-30T16:38:22;20.77;;;10.63;;
50161;SDS011;36061;48.116;11.612;2022-11-30T16:40:49;18.50;;;9.73;;
50161;SDS011;36061;48.116;11.612;2022-11-30T16:43:16;19.23;;;9.97;;
50161;SDS011;36061;48.116;11.612;2022-11-30T16:45:42;21.07;;;11.03;;
50161;SDS011;36061;48.116;11.612;2022-11-30T16:48:10;21.00;;;10.77;;
50161;SDS011;36061;48.116;11.612;2022-11-30T16:50:36;20.13;;;9.43;;